sensor_id;sensor_type;location;lat;lon;timestamp;P1;durP1;ratioP1;P2;durP2;ratioP2
2542;SDS011;1116;51.502;7.414;2023-08-20T00:01:19;12.00;;;10.10;;
2542;SDS011;1116;51.502;7.414;2023-08-20T00:03:52;12.57;;;10.00;;
2542;SDS011;1116;51.502;7.414;2023-08-20T00:06:24;11.60;;;9.93;;
2542;SDS011;1116;51.502;7.414;2023-08-20T00:08:56;21.30;;;9.20;;
2542;SDS011;1116;51.502;7.414;2023-08-20T00:11:27;10.50;;;8.63;;
2542;SDS011;1116;51.502;7.414;2023-08-20T00:13:58;18.33;;;10.30;;
2542;SDS011;1116;51.502;7.414;2023-08-20T00:16:32;16.23;;;9.63;;
2542;SDS011;1116;51.502;7.414;2023-08-20T00:19:04;15.77;;;9.77;;
2542;SDS011;1116;51.502;7.414;2023-08-20T00:21:38;10.87;;;9.77;;
2542;SDS011;1116;51.502;7.414;2023-08-20T00:24:12;12.77;;;11.33;;
2542;SDS011;1116;51.502;7.414;2023-08-20T00:26:44;19.87;;;11.07;;
2542;SDS011;1116;51.502;7.414;2023-08-20T00:29:15;10.97;;;9.50;;
2542;SDS011;1116;51.502;7.414;2023-08-20T00:31:49;12.10;;;10.23;;
2542;SDS011;1116;51.502;7.414;2023-08-20T00:34:20;12.93;;;9.80;;
2542;SDS011;1116;51.502;7.414;2023-08-20T00:36:51;12.10;;;10.50;;
2542;SDS011;1116;51.502;7.414;2023-08-20T00:39:21;12.20;;;9.67;;
2542;SDS011;1116;51.502;7.414;2023-08-20T00:41:52;18.23;;;11.20;;
2542;SDS011;1116;51.502;7.414;2023-08-20T00:44:23;12.10;;;10.37;;
2542;SDS011;1116;51.502;7.414;2023-08-20T00:46:57;14.40;;;9.73;;
2542;SDS011;1116;51.502;7.414;2023-08-20T00:49:30;12.87;;;9.80;;
2542;SDS011;1116;51.502;7.414;2023-08-20T00:52:02;14.33;;;10.70;;
2542;SDS011;1116;51.502;7.414;2023-08-20T00:54:35;10.90;;;9.77;;
2542;SDS011;1116;51.502;7.414;2023-08-20T00:57:07;12.10;;;10.90;;
2542;SDS011;1116;51.502;7.414;2023-08-20T00:59:38;11.80;;;9.40;;
2542;SDS011;1116;51.502;7.414;2023-08-20T01:02:12;12.57;;;9.63;;
2542;SDS011;1116;51.502;7.414;2023-08-20T01:04:43;14.97;;;10.40;;
2542;SDS011;1116;51.502;7.414;2023-08-20T01:07:17;15.60;;;10.80;;
2542;SDS011;1116;51.502;7.414;2023-08-20T01:10:04;12.70;;;11.40;;
2542;SDS011;1116;51.502;7.414;2023-08-20T01:12:38;15.70;;;13.27;;
2542;SDS011;1116;51.502;7.414;2023-08-20T01:15:11;16.27;;;13.63;;
2542;SDS011;1116;51.502;7.414;2023-08-20T01:17:45;13.47;;;12.07;;
2542;SDS011;1116;51.502;7.414;2023-08-20T01:20:15;14.83;;;11.90;;
2542;SDS011;1116;51.502;7.414;2023-08-20T01:25:50;17.83;;;13.00;;
2542;SDS011;1116;51.502;7.414;2023-08-20T01:28:34;15.10;;;11.23;;
2542;SDS011;1116;51.502;7.414;2023-08-20T01:31:05;15.10;;;11.70;;
2542;SDS011;1116;51.502;7.414;2023-08-20T01:33:37;13.60;;;11.13;;
2542;SDS011;1116;51.502;7.414;2023-08-20T01:36:07;11.80;;;10.60;;
2542;SDS011;1116;51.502;7.414;2023-08-20T01:38:38;23.33;;;12.13;;
2542;SDS011;1116;51.502;7.414;2023-08-20T01:41:08;12.67;;;10.90;;
2542;SDS011;1116;51.502;7.414;2023-08-20T01:43:41;17.33;;;11.07;;
2542;SDS011;1116;51.502;7.414;2023-08-20T01:46:11;14.00;;;11.97;;
2542;SDS011;1116;51.502;7.414;2023-08-20T01:48:41;18.90;;;11.93;;
2542;SDS011;1116;51.502;7.414;2023-08-20T01:51:11;13.80;;;11.60;;
2542;SDS011;1116;51.502;7.414;2023-08-20T01:53:41;13.10;;;11.20;;
2542;SDS011;1116;51.502;7.414;2023-08-20T01:56:11;12.90;;;11.53;;
2542;SDS011;1116;51.502;7.414;2023-08-20T01:58:45;12.67;;;11.10;;
2542;SDS011;1116;51.502;7.414;2023-08-20T02:01:15;14.37;;;10.70;;
2542;SDS011;1116;51.502;7.414;2023-08-20T02:03:45;15.43;;;10.90;;
2542;SDS011;1116;51.502;7.414;2023-08-20T02:06:15;12.90;;;11.17;;
2542;SDS011;1116;51.502;7.414;2023-08-20T02:08:45;11.67;;;10.57;;
2542;SDS011;1116;51.502;7.414;2023-08-20T02:11:15;13.90;;;10.37;;
2542;SDS011;1116;51.502;7.414;2023-08-20T02:13:49;19.93;;;10.80;;
2542;SDS011;1116;51.502;7.414;2023-08-20T02:16:25;12.43;;;10.20;;
2542;SDS011;1116;51.502;7.414;2023-08-20T02:18:57;13.03;;;11.10;;
2542;SDS011;1116;51.502;7.414;2023-08-20T02:21:29;16.80;;;11.37;;
2542;SDS011;1116;51.502;7.414;2023-08-20T02:23:59;13.70;;;10.90;;
2542;SDS011;1116;51.502;7.414;2023-08-20T02:26:28;12.03;;;10.80;;
2542;SDS011;1116;51.502;7.414;2023-08-20T02:29:01;15.50;;;10.87;;
2542;SDS011;1116;51.502;7.414;2023-08-20T02:31:32;11.33;;;9.87;;
2542;SDS011;1116;51.502;7.414;2023-08-20T02:34:02;13.67;;;10.73;;
2542;SDS011;1116;51.502;7.414;2023-08-20T02:36:32;13.17;;;11.07;;
2542;SDS011;1116;51.502;7.414;2023-08-20T02:39:02;23.70;;;11.70;;
2542;SDS011;1116;51.502;7.414;2023-08-20T02:41:34;13.90;;;11.37;;
2542;SDS011;1116;51.502;7.414;2023-08-20T02:44:07;15.33;;;10.93;;
2542;SDS011;1116;51.502;7.414;2023-08-20T02:46:40;12.53;;;10.80;;
2542;SDS011;1116;51.502;7.414;2023-08-20T02:49:11;29.50;;;12.20;;
2542;SDS011;1116;51.502;7.414;2023-08-20T02:51:42;22.93;;;10.93;;
2542;SDS011;1116;51.502;7.414;2023-08-20T02:54:12;12.93;;;10.40;;
2542;SDS011;1116;51.502;7.414;2023-08-20T02:56:42;15.83;;;10.83;;
2542;SDS011;1116;51.502;7.414;2023-08-20T02:59:15;12.20;;;10.80;;
2542;SDS011;1116;51.502;7.414;2023-08-20T03:01:45;18.17;;;12.43;;
2542;SDS011;1116;51.502;7.414;2023-08-20T03:04:15;13.00;;;11.70;;
2542;SDS011;1116;51.502;7.414;2023-08-20T03:06:45;12.47;;;11.27;;
2542;SDS011;1116;51.502;7.414;2023-08-20T03:09:15;23.30;;;12.67;;
2542;SDS011;1116;51.502;7.414;2023-08-20T03:11:45;14.53;;;12.57;;
2542;SDS011;1116;51.502;7.414;2023-08-20T03:14:17;16.30;;;12.43;;
2542;SDS011;1116;51.502;7.414;2023-08-20T03:16:47;13.07;;;11.47;;
2542;SDS011;1116;51.502;7.414;2023-08-20T03:19:17;13.77;;;11.20;;
2542;SDS011;1116;51.502;7.414;2023-08-20T03:21:47;14.70;;;11.27;;
2542;SDS011;1116;51.502;7.414;2023-08-20T03:24:19;18.40;;;13.40;;
2542;SDS011;1116;51.502;7.414;2023-08-20T03:26:50;13.47;;;12.10;;
2542;SDS011;1116;51.502;7.414;2023-08-20T03:29:23;22.80;;;12.53;;
2542;SDS011;1116;51.502;7.414;2023-08-20T03:31:53;18.40;;;12.67;;
2542;SDS011;1116;51.502;7.414;2023-08-20T03:34:24;15.10;;;12.70;;
2542;SDS011;1116;51.502;7.414;2023-08-20T03:36:55;16.20;;;12.33;;
2542;SDS011;1116;51.502;7.414;2023-08-20T03:39:26;15.33;;;13.37;;
2542;SDS011;1116;51.502;7.414;2023-08-20T03:41:57;15.90;;;13.40;;
2542;SDS011;1116;51.502;7.414;2023-08-20T03:44:31;19.70;;;13.63;;
2542;SDS011;1116;51.502;7.414;2023-08-20T03:47:01;17.97;;;15.17;;
2542;SDS011;1116;51.502;7.414;2023-08-20T03:49:36;15.07;;;13.53;;
2542;SDS011;1116;51.502;7.414;2023-08-20T03:52:07;18.60;;;15.63;;
2542;SDS011;1116;51.502;7.414;2023-08-20T03:54:38;19.20;;;15.70;;
2542;SDS011;1116;51.502;7.414;2023-08-20T03:57:10;17.60;;;15.30;;
2542;SDS011;1116;51.502;7.414;2023-08-20T03:59:44;20.80;;;15.80;;
2542;SDS011;1116;51.502;7.414;2023-08-20T04:02:15;26.30;;;20.30;;
2542;SDS011;1116;51.502;7.414;2023-08-20T04:04:49;30.00;;;20.30;;
2542;SDS011;1116;51.502;7.414;2023-08-20T04:07:20;31.93;;;19.80;;
2542;SDS011;1116;51.502;7.414;2023-08-20T04:09:51;35.90;;;25.63;;
2542;SDS011;1116;51.502;7.414;2023-08-20T04:12:22;44.53;;;25.63;;
2542;SDS011;1116;51.502;7.414;2023-08-20T04:14:55;49.83;;;30.30;;
2542;SDS011;1116;51.502;7.414;2023-08-20T04:17:26;46.57;;;27.97;;
2542;SDS011;1116;51.502;7.414;2023-08-20T04:19:57;36.47;;;24.60;;
2542;SDS011;1116;51.502;7.414;2023-08-20T04:22:31;76.40;;;32.90;;
2542;SDS011;1116;51.502;7.414;2023-08-20T04:25:04;57.73;;;29.07;;
2542;SDS011;1116;51.502;7.414;2023-08-20T04:27:34;48.47;;;27.80;;
2542;SDS011;1116;51.502;7.414;2023-08-20T04:30:09;56.30;;;29.20;;
2542;SDS011;1116;51.502;7.414;2023-08-20T04:32:40;63.37;;;32.60;;
2542;SDS011;1116;51.502;7.414;2023-08-20T04:35:11;119.10;;;38.13;;
2542;SDS011;1116;51.502;7.414;2023-08-20T04:37:42;82.27;;;38.70;;
2542;SDS011;1116;51.502;7.414;2023-08-20T04:40:13;61.00;;;32.70;;
2542;SDS011;1116;51.502;7.414;2023-08-20T04:42:45;109.33;;;45.23;;
2542;SDS011;1116;51.502;7.414;2023-08-20T04:45:18;123.63;;;48.63;;
2542;SDS011;1116;51.502;7.414;2023-08-20T04:47:49;77.57;;;37.37;;
2542;SDS011;1116;51.502;7.414;2023-08-20T04:50:20;106.97;;;49.03;;
2542;SDS011;1116;51.502;7.414;2023-08-20T04:52:51;109.50;;;50.03;;
2542;SDS011;1116;51.502;7.414;2023-08-20T04:55:22;98.43;;;46.43;;
2542;SDS011;1116;51.502;7.414;2023-08-20T04:57:53;111.43;;;46.43;;
2542;SDS011;1116;51.502;7.414;2023-08-20T05:00:26;92.10;;;45.10;;
2542;SDS011;1116;51.502;7.414;2023-08-20T05:02:58;89.23;;;42.03;;
2542;SDS011;1116;51.502;7.414;2023-08-20T05:05:29;79.03;;;40.97;;
2542;SDS011;1116;51.502;7.414;2023-08-20T05:08:00;82.17;;;37.60;;
2542;SDS011;1116;51.502;7.414;2023-08-20T05:10:35;59.00;;;35.67;;
2542;SDS011;1116;51.502;7.414;2023-08-20T05:13:05;65.40;;;33.90;;
2542;SDS011;1116;51.502;7.414;2023-08-20T05:15:37;71.30;;;34.80;;
2542;SDS011;1116;51.502;7.414;2023-08-20T05:18:07;59.23;;;33.10;;
2542;SDS011;1116;51.502;7.414;2023-08-20T05:20:39;68.87;;;33.53;;
2542;SDS011;1116;51.502;7.414;2023-08-20T05:23:10;56.07;;;31.27;;
2542;SDS011;1116;51.502;7.414;2023-08-20T05:25:41;64.57;;;33.10;;
2542;SDS011;1116;51.502;7.414;2023-08-20T05:28:12;61.40;;;31.17;;
2542;SDS011;1116;51.502;7.414;2023-08-20T05:30:52;64.23;;;33.63;;
2542;SDS011;1116;51.502;7.414;2023-08-20T05:33:24;59.03;;;34.60;;
2542;SDS011;1116;51.502;7.414;2023-08-20T05:35:57;73.73;;;35.03;;
2542;SDS011;1116;51.502;7.414;2023-08-20T05:38:29;69.23;;;34.73;;
2542;SDS011;1116;51.502;7.414;2023-08-20T05:41:00;68.37;;;33.40;;
2542;SDS011;1116;51.502;7.414;2023-08-20T05:43:31;57.97;;;33.10;;
2542;SDS011;1116;51.502;7.414;2023-08-20T05:46:06;57.50;;;33.53;;
2542;SDS011;1116;51.502;7.414;2023-08-20T05:48:36;55.47;;;34.17;;
2542;SDS011;1116;51.502;7.414;2023-08-20T05:51:07;54.33;;;33.70;;
2542;SDS011;1116;51.502;7.414;2023-08-20T05:53:38;59.90;;;33.97;;
2542;SDS011;1116;51.502;7.414;2023-08-20T05:56:09;62.10;;;38.07;;
2542;SDS011;1116;51.502;7.414;2023-08-20T05:58:40;67.50;;;38.97;;
2542;SDS011;1116;51.502;7.414;2023-08-20T06:01:13;67.17;;;39.17;;
2542;SDS011;1116;51.502;7.414;2023-08-20T06:03:43;63.00;;;39.10;;
2542;SDS011;1116;51.502;7.414;2023-08-20T06:06:14;62.93;;;39.17;;
2542;SDS011;1116;51.502;7.414;2023-08-20T06:08:45;59.57;;;38.40;;
2542;SDS011;1116;51.502;7.414;2023-08-20T06:11:34;61.87;;;38.03;;
2542;SDS011;1116;51.502;7.414;2023-08-20T06:14:05;59.50;;;37.60;;
2542;SDS011;1116;51.502;7.414;2023-08-20T06:16:38;64.67;;;37.63;;
2542;SDS011;1116;51.502;7.414;2023-08-20T06:19:08;58.03;;;36.50;;
2542;SDS011;1116;51.502;7.414;2023-08-20T06:21:39;59.97;;;38.30;;
2542;SDS011;1116;51.502;7.414;2023-08-20T06:24:10;58.63;;;36.63;;
2542;SDS011;1116;51.502;7.414;2023-08-20T06:26:41;59.13;;;37.00;;
2542;SDS011;1116;51.502;7.414;2023-08-20T06:29:13;54.30;;;34.57;;
2542;SDS011;1116;51.502;7.414;2023-08-20T06:31:46;54.60;;;35.87;;
2542;SDS011;1116;51.502;7.414;2023-08-20T06:34:17;50.50;;;34.67;;
2542;SDS011;1116;51.502;7.414;2023-08-20T06:36:48;43.90;;;32.47;;
2542;SDS011;1116;51.502;7.414;2023-08-20T06:39:19;42.33;;;31.00;;
2542;SDS011;1116;51.502;7.414;2023-08-20T06:41:50;44.50;;;32.73;;
2542;SDS011;1116;51.502;7.414;2023-08-20T06:44:21;44.07;;;30.20;;
2542;SDS011;1116;51.502;7.414;2023-08-20T06:46:55;36.87;;;28.00;;
2542;SDS011;1116;51.502;7.414;2023-08-20T06:49:25;35.13;;;27.77;;
2542;SDS011;1116;51.502;7.414;2023-08-20T06:51:55;34.30;;;26.90;;
2542;SDS011;1116;51.502;7.414;2023-08-20T06:54:26;27.63;;;24.53;;
2542;SDS011;1116;51.502;7.414;2023-08-20T06:56:57;31.60;;;25.30;;
2542;SDS011;1116;51.502;7.414;2023-08-20T06:59:28;29.70;;;24.03;;
2542;SDS011;1116;51.502;7.414;2023-08-20T07:02:02;26.90;;;23.30;;
2542;SDS011;1116;51.502;7.414;2023-08-20T07:04:32;27.80;;;24.17;;
2542;SDS011;1116;51.502;7.414;2023-08-20T07:07:04;28.73;;;23.07;;
2542;SDS011;1116;51.502;7.414;2023-08-20T07:09:35;28.30;;;22.27;;
2542;SDS011;1116;51.502;7.414;2023-08-20T07:12:07;25.10;;;22.47;;
2542;SDS011;1116;51.502;7.414;2023-08-20T07:14:38;24.47;;;21.17;;
2542;SDS011;1116;51.502;7.414;2023-08-20T07:17:11;23.00;;;19.97;;
2542;SDS011;1116;51.502;7.414;2023-08-20T07:19:41;25.97;;;21.00;;
2542;SDS011;1116;51.502;7.414;2023-08-20T07:22:12;25.77;;;23.07;;
2542;SDS011;1116;51.502;7.414;2023-08-20T07:24:43;21.77;;;19.47;;
2542;SDS011;1116;51.502;7.414;2023-08-20T07:27:14;24.80;;;22.17;;
2542;SDS011;1116;51.502;7.414;2023-08-20T07:29:45;27.23;;;22.40;;
2542;SDS011;1116;51.502;7.414;2023-08-20T07:32:18;24.17;;;21.23;;
2542;SDS011;1116;51.502;7.414;2023-08-20T07:34:48;26.87;;;22.93;;
2542;SDS011;1116;51.502;7.414;2023-08-20T07:37:19;24.77;;;20.07;;
2542;SDS011;1116;51.502;7.414;2023-08-20T07:39:50;25.23;;;21.53;;
2542;SDS011;1116;51.502;7.414;2023-08-20T07:42:21;24.27;;;20.10;;
2542;SDS011;1116;51.502;7.414;2023-08-20T07:44:52;24.47;;;21.13;;
2542;SDS011;1116;51.502;7.414;2023-08-20T07:47:25;27.30;;;20.73;;
2542;SDS011;1116;51.502;7.414;2023-08-20T07:49:57;23.07;;;20.47;;
2542;SDS011;1116;51.502;7.414;2023-08-20T07:52:31;24.40;;;21.07;;
2542;SDS011;1116;51.502;7.414;2023-08-20T07:55:02;25.10;;;20.97;;
2542;SDS011;1116;51.502;7.414;2023-08-20T07:57:33;24.40;;;21.80;;
2542;SDS011;1116;51.502;7.414;2023-08-20T08:00:05;23.93;;;21.27;;
2542;SDS011;1116;51.502;7.414;2023-08-20T08:02:39;22.47;;;20.07;;
2542;SDS011;1116;51.502;7.414;2023-08-20T08:05:09;26.20;;;21.67;;
2542;SDS011;1116;51.502;7.414;2023-08-20T08:07:41;24.00;;;21.50;;
2542;SDS011;1116;51.502;7.414;2023-08-20T08:10:12;24.50;;;21.90;;
2542;SDS011;1116;51.502;7.414;2023-08-20T08:12:43;21.33;;;19.23;;
2542;SDS011;1116;51.502;7.414;2023-08-20T08:15:14;23.43;;;21.00;;
2542;SDS011;1116;51.502;7.414;2023-08-20T08:17:48;22.73;;;20.13;;
2542;SDS011;1116;51.502;7.414;2023-08-20T08:20:18;22.47;;;20.17;;
2542;SDS011;1116;51.502;7.414;2023-08-20T08:22:50;21.43;;;19.33;;
2542;SDS011;1116;51.502;7.414;2023-08-20T08:25:20;20.20;;;18.07;;
2542;SDS011;1116;51.502;7.414;2023-08-20T08:27:51;18.87;;;16.97;;
2542;SDS011;1116;51.502;7.414;2023-08-20T08:30:27;21.83;;;17.53;;
2542;SDS011;1116;51.502;7.414;2023-08-20T08:33:02;18.20;;;16.33;;
2542;SDS011;1116;51.502;7.414;2023-08-20T08:35:32;18.20;;;15.70;;
2542;SDS011;1116;51.502;7.414;2023-08-20T08:38:03;17.07;;;15.17;;
2542;SDS011;1116;51.502;7.414;2023-08-20T08:40:34;17.07;;;15.37;;
2542;SDS011;1116;51.502;7.414;2023-08-20T08:43:05;16.20;;;14.57;;
2542;SDS011;1116;51.502;7.414;2023-08-20T08:45:46;18.53;;;16.10;;
2542;SDS011;1116;51.502;7.414;2023-08-20T08:48:20;16.50;;;14.87;;
2542;SDS011;1116;51.502;7.414;2023-08-20T08:50:50;16.67;;;15.07;;
2542;SDS011;1116;51.502;7.414;2023-08-20T08:53:24;15.07;;;13.60;;
2542;SDS011;1116;51.502;7.414;2023-08-20T08:55:56;16.90;;;15.30;;
2542;SDS011;1116;51.502;7.414;2023-08-20T08:58:28;13.53;;;12.23;;
2542;SDS011;1116;51.502;7.414;2023-08-20T09:00:59;12.17;;;10.97;;
2542;SDS011;1116;51.502;7.414;2023-08-20T09:03:37;13.40;;;9.60;;
2542;SDS011;1116;51.502;7.414;2023-08-20T09:06:09;11.00;;;9.90;;
2542;SDS011;1116;51.502;7.414;2023-08-20T09:08:40;10.03;;;9.03;;
2542;SDS011;1116;51.502;7.414;2023-08-20T09:11:11;10.70;;;9.33;;
2542;SDS011;1116;51.502;7.414;2023-08-20T09:13:42;10.23;;;9.37;;
2542;SDS011;1116;51.502;7.414;2023-08-20T09:16:13;13.53;;;8.90;;
2542;SDS011;1116;51.502;7.414;2023-08-20T09:18:47;9.63;;;8.63;;
2542;SDS011;1116;51.502;7.414;2023-08-20T09:21:17;10.67;;;9.40;;
2542;SDS011;1116;51.502;7.414;2023-08-20T09:23:48;10.30;;;9.10;;
2542;SDS011;1116;51.502;7.414;2023-08-20T09:26:19;11.07;;;9.53;;
2542;SDS011;1116;51.502;7.414;2023-08-20T09:28:54;9.80;;;8.80;;
2542;SDS011;1116;51.502;7.414;2023-08-20T09:31:36;10.80;;;9.70;;
2542;SDS011;1116;51.502;7.414;2023-08-20T09:34:14;9.63;;;8.60;;
2542;SDS011;1116;51.502;7.414;2023-08-20T09:36:44;11.00;;;9.47;;
2542;SDS011;1116;51.502;7.414;2023-08-20T09:39:17;13.60;;;12.40;;
2542;SDS011;1116;51.502;7.414;2023-08-20T09:41:48;13.43;;;11.03;;
2542;SDS011;1116;51.502;7.414;2023-08-20T09:44:20;12.37;;;10.23;;
2542;SDS011;1116;51.502;7.414;2023-08-20T09:46:52;10.60;;;9.17;;
2542;SDS011;1116;51.502;7.414;2023-08-20T09:49:26;9.77;;;8.77;;
2542;SDS011;1116;51.502;7.414;2023-08-20T09:52:01;9.37;;;8.47;;
2542;SDS011;1116;51.502;7.414;2023-08-20T09:54:38;8.63;;;7.83;;
2542;SDS011;1116;51.502;7.414;2023-08-20T09:57:23;9.17;;;8.37;;
2542;SDS011;1116;51.502;7.414;2023-08-20T09:59:58;9.20;;;8.30;;
2542;SDS011;1116;51.502;7.414;2023-08-20T10:02:30;8.80;;;8.10;;
2542;SDS011;1116;51.502;7.414;2023-08-20T10:05:04;9.80;;;8.70;;
2542;SDS011;1116;51.502;7.414;2023-08-20T10:07:36;10.13;;;9.10;;
2542;SDS011;1116;51.502;7.414;2023-08-20T10:10:09;12.43;;;10.00;;
2542;SDS011;1116;51.502;7.414;2023-08-20T10:12:41;9.27;;;8.47;;
2542;SDS011;1116;51.502;7.414;2023-08-20T10:15:13;10.53;;;8.10;;
2542;SDS011;1116;51.502;7.414;2023-08-20T10:17:46;8.70;;;7.90;;
2542;SDS011;1116;51.502;7.414;2023-08-20T10:20:20;10.33;;;8.30;;
2542;SDS011;1116;51.502;7.414;2023-08-20T10:22:51;8.10;;;7.40;;
2542;SDS011;1116;51.502;7.414;2023-08-20T10:25:24;13.13;;;7.20;;
2542;SDS011;1116;51.502;7.414;2023-08-20T10:28:11;8.10;;;7.37;;
2542;SDS011;1116;51.502;7.414;2023-08-20T10:33:36;7.20;;;6.50;;
2542;SDS011;1116;51.502;7.414;2023-08-20T10:36:13;7.47;;;6.77;;
2542;SDS011;1116;51.502;7.414;2023-08-20T10:38:46;9.17;;;8.30;;
2542;SDS011;1116;51.502;7.414;2023-08-20T10:41:17;10.87;;;9.97;;
2542;SDS011;1116;51.502;7.414;2023-08-20T10:43:57;10.40;;;9.40;;
2542;SDS011;1116;51.502;7.414;2023-08-20T10:46:28;9.53;;;8.63;;
2542;SDS011;1116;51.502;7.414;2023-08-20T10:49:04;10.40;;;9.50;;
2542;SDS011;1116;51.502;7.414;2023-08-20T10:51:38;9.53;;;8.63;;
2542;SDS011;1116;51.502;7.414;2023-08-20T10:54:10;10.30;;;9.30;;
2542;SDS011;1116;51.502;7.414;2023-08-20T10:56:42;9.40;;;8.50;;
2542;SDS011;1116;51.502;7.414;2023-08-20T10:59:15;9.47;;;7.80;;
2542;SDS011;1116;51.502;7.414;2023-08-20T11:01:49;8.30;;;7.30;;
2542;SDS011;1116;51.502;7.414;2023-08-20T11:04:21;7.97;;;7.17;;
2542;SDS011;1116;51.502;7.414;2023-08-20T11:06:57;8.20;;;7.40;;
2542;SDS011;1116;51.502;7.414;2023-08-20T11:09:29;9.13;;;7.10;;
2542;SDS011;1116;51.502;7.414;2023-08-20T11:12:01;9.50;;;8.63;;
2542;SDS011;1116;51.502;7.414;2023-08-20T11:14:32;8.57;;;7.10;;
2542;SDS011;1116;51.502;7.414;2023-08-20T11:17:03;8.40;;;7.60;;
2542;SDS011;1116;51.502;7.414;2023-08-20T11:19:34;7.87;;;7.27;;
2542;SDS011;1116;51.502;7.414;2023-08-20T11:22:08;7.90;;;7.20;;
2542;SDS011;1116;51.502;7.414;2023-08-20T11:24:42;7.50;;;6.80;;
2542;SDS011;1116;51.502;7.414;2023-08-20T11:27:13;8.00;;;7.20;;
2542;SDS011;1116;51.502;7.414;2023-08-20T11:29:44;7.60;;;6.90;;
2542;SDS011;1116;51.502;7.414;2023-08-20T11:32:17;6.93;;;6.33;;
2542;SDS011;1116;51.502;7.414;2023-08-20T11:34:48;8.73;;;7.23;;
2542;SDS011;1116;51.502;7.414;2023-08-20T11:37:22;7.93;;;6.63;;
2542;SDS011;1116;51.502;7.414;2023-08-20T11:39:53;7.60;;;6.87;;
2542;SDS011;1116;51.502;7.414;2023-08-20T11:42:24;6.97;;;6.20;;
2542;SDS011;1116;51.502;7.414;2023-08-20T11:44:56;6.87;;;6.30;;
2542;SDS011;1116;51.502;7.414;2023-08-20T11:47:27;8.27;;;7.33;;
2542;SDS011;1116;51.502;7.414;2023-08-20T11:50:02;7.90;;;7.00;;
2542;SDS011;1116;51.502;7.414;2023-08-20T11:52:36;8.30;;;7.50;;
2542;SDS011;1116;51.502;7.414;2023-08-20T11:55:09;13.70;;;8.77;;
2542;SDS011;1116;51.502;7.414;2023-08-20T11:57:40;26.33;;;13.97;;
2542;SDS011;1116;51.502;7.414;2023-08-20T12:00:23;42.87;;;17.33;;
2542;SDS011;1116;51.502;7.414;2023-08-20T12:02:55;9.80;;;8.83;;
2542;SDS011;1116;51.502;7.414;2023-08-20T12:05:26;9.70;;;8.90;;
2542;SDS011;1116;51.502;7.414;2023-08-20T12:08:01;9.40;;;8.27;;
2542;SDS011;1116;51.502;7.414;2023-08-20T12:10:32;9.47;;;8.67;;
2542;SDS011;1116;51.502;7.414;2023-08-20T12:13:04;10.10;;;9.10;;
2542;SDS011;1116;51.502;7.414;2023-08-20T12:15:35;12.70;;;11.57;;
2542;SDS011;1116;51.502;7.414;2023-08-20T12:18:06;12.30;;;11.30;;
2542;SDS011;1116;51.502;7.414;2023-08-20T12:20:37;11.80;;;10.60;;
2542;SDS011;1116;51.502;7.414;2023-08-20T12:23:12;12.77;;;11.67;;
2542;SDS011;1116;51.502;7.414;2023-08-20T12:25:49;13.13;;;11.53;;
2542;SDS011;1116;51.502;7.414;2023-08-20T12:28:21;13.80;;;12.60;;
2542;SDS011;1116;51.502;7.414;2023-08-20T12:30:52;13.23;;;12.03;;
2542;SDS011;1116;51.502;7.414;2023-08-20T12:33:23;13.97;;;12.60;;
2542;SDS011;1116;51.502;7.414;2023-08-20T12:35:53;14.27;;;13.07;;
2542;SDS011;1116;51.502;7.414;2023-08-20T12:38:27;16.63;;;15.23;;
2542;SDS011;1116;51.502;7.414;2023-08-20T12:41:01;17.07;;;15.73;;
2542;SDS011;1116;51.502;7.414;2023-08-20T12:43:33;17.97;;;16.37;;
2542;SDS011;1116;51.502;7.414;2023-08-20T12:46:04;19.10;;;17.60;;
2542;SDS011;1116;51.502;7.414;2023-08-20T12:48:35;19.00;;;17.50;;
2542;SDS011;1116;51.502;7.414;2023-08-20T12:51:07;18.17;;;16.60;;
2542;SDS011;1116;51.502;7.414;2023-08-20T12:53:45;17.93;;;16.57;;
2542;SDS011;1116;51.502;7.414;2023-08-20T12:56:15;19.80;;;18.10;;
2542;SDS011;1116;51.502;7.414;2023-08-20T12:58:47;19.80;;;18.00;;
2542;SDS011;1116;51.502;7.414;2023-08-20T13:01:17;19.50;;;18.00;;
2542;SDS011;1116;51.502;7.414;2023-08-20T13:03:49;20.20;;;18.27;;
2542;SDS011;1116;51.502;7.414;2023-08-20T13:06:21;19.80;;;18.17;;
2542;SDS011;1116;51.502;7.414;2023-08-20T13:08:57;17.33;;;16.13;;
2542;SDS011;1116;51.502;7.414;2023-08-20T13:11:27;17.70;;;16.30;;
2542;SDS011;1116;51.502;7.414;2023-08-20T13:13:59;17.37;;;15.87;;
2542;SDS011;1116;51.502;7.414;2023-08-20T13:16:31;16.63;;;15.33;;
2542;SDS011;1116;51.502;7.414;2023-08-20T13:19:04;16.80;;;15.60;;
2542;SDS011;1116;51.502;7.414;2023-08-20T13:21:35;17.17;;;15.77;;
2542;SDS011;1116;51.502;7.414;2023-08-20T13:24:09;17.90;;;16.30;;
2542;SDS011;1116;51.502;7.414;2023-08-20T13:26:39;16.20;;;14.90;;
2542;SDS011;1116;51.502;7.414;2023-08-20T13:29:10;16.80;;;15.40;;
2542;SDS011;1116;51.502;7.414;2023-08-20T13:31:42;18.33;;;16.83;;
2542;SDS011;1116;51.502;7.414;2023-08-20T13:34:15;17.60;;;16.20;;
2542;SDS011;1116;51.502;7.414;2023-08-20T13:36:46;16.70;;;15.40;;
2542;SDS011;1116;51.502;7.414;2023-08-20T13:39:20;17.30;;;16.00;;
2542;SDS011;1116;51.502;7.414;2023-08-20T13:41:50;15.90;;;14.57;;
2542;SDS011;1116;51.502;7.414;2023-08-20T13:44:21;16.30;;;15.00;;
2542;SDS011;1116;51.502;7.414;2023-08-20T13:46:52;19.57;;;17.83;;
2542;SDS011;1116;51.502;7.414;2023-08-20T13:49:22;25.77;;;23.87;;
2542;SDS011;1116;51.502;7.414;2023-08-20T13:51:54;15.67;;;14.47;;
2542;SDS011;1116;51.502;7.414;2023-08-20T13:54:30;16.47;;;15.17;;
2542;SDS011;1116;51.502;7.414;2023-08-20T13:57:00;17.30;;;15.90;;
2542;SDS011;1116;51.502;7.414;2023-08-20T13:59:31;15.53;;;14.13;;
2542;SDS011;1116;51.502;7.414;2023-08-20T14:02:02;14.77;;;13.37;;
2542;SDS011;1116;51.502;7.414;2023-08-20T14:04:33;14.27;;;13.13;;
2542;SDS011;1116;51.502;7.414;2023-08-20T14:07:10;13.67;;;12.57;;
2542;SDS011;1116;51.502;7.414;2023-08-20T14:09:43;13.57;;;12.60;;
2542;SDS011;1116;51.502;7.414;2023-08-20T14:12:13;12.70;;;11.70;;
2542;SDS011;1116;51.502;7.414;2023-08-20T14:14:44;13.30;;;12.03;;
2542;SDS011;1116;51.502;7.414;2023-08-20T14:17:15;13.00;;;12.00;;
2542;SDS011;1116;51.502;7.414;2023-08-20T14:19:46;13.47;;;12.33;;
2542;SDS011;1116;51.502;7.414;2023-08-20T14:22:17;14.80;;;13.60;;
2542;SDS011;1116;51.502;7.414;2023-08-20T14:24:51;13.67;;;12.57;;
2542;SDS011;1116;51.502;7.414;2023-08-20T14:27:21;12.57;;;11.57;;
2542;SDS011;1116;51.502;7.414;2023-08-20T14:29:52;13.87;;;12.40;;
2542;SDS011;1116;51.502;7.414;2023-08-20T14:32:23;11.43;;;10.53;;
2542;SDS011;1116;51.502;7.414;2023-08-20T14:34:53;12.57;;;11.53;;
2542;SDS011;1116;51.502;7.414;2023-08-20T14:37:24;12.83;;;11.73;;
2542;SDS011;1116;51.502;7.414;2023-08-20T14:39:58;12.10;;;11.10;;
2542;SDS011;1116;51.502;7.414;2023-08-20T14:42:28;12.17;;;11.03;;
2542;SDS011;1116;51.502;7.414;2023-08-20T14:44:59;11.20;;;10.10;;
2542;SDS011;1116;51.502;7.414;2023-08-20T14:47:31;11.40;;;10.40;;
2542;SDS011;1116;51.502;7.414;2023-08-20T14:50:02;10.97;;;10.00;;
2542;SDS011;1116;51.502;7.414;2023-08-20T14:52:34;12.13;;;10.97;;
2542;SDS011;1116;51.502;7.414;2023-08-20T14:55:08;12.00;;;10.80;;
2542;SDS011;1116;51.502;7.414;2023-08-20T14:57:39;16.13;;;14.83;;
2542;SDS011;1116;51.502;7.414;2023-08-20T15:00:18;11.37;;;10.50;;
2542;SDS011;1116;51.502;7.414;2023-08-20T15:02:51;10.43;;;9.63;;
2542;SDS011;1116;51.502;7.414;2023-08-20T15:05:22;9.87;;;9.07;;
2542;SDS011;1116;51.502;7.414;2023-08-20T15:07:53;9.13;;;8.33;;
2542;SDS011;1116;51.502;7.414;2023-08-20T15:10:27;9.30;;;8.50;;
2542;SDS011;1116;51.502;7.414;2023-08-20T15:12:57;8.60;;;7.90;;
2542;SDS011;1116;51.502;7.414;2023-08-20T15:15:28;11.80;;;8.17;;
2542;SDS011;1116;51.502;7.414;2023-08-20T15:17:59;7.90;;;7.30;;
2542;SDS011;1116;51.502;7.414;2023-08-20T15:20:30;7.90;;;6.80;;
2542;SDS011;1116;51.502;7.414;2023-08-20T15:23:01;7.93;;;6.17;;
2542;SDS011;1116;51.502;7.414;2023-08-20T15:25:35;5.70;;;5.10;;
2542;SDS011;1116;51.502;7.414;2023-08-20T15:28:06;5.93;;;5.33;;